sensor_id;sensor_type;location;lat;lon;timestamp;P1;durP1;ratioP1;P2;durP2;ratioP2
72891;SDS011;61032;50.782;6.818;2023-01-01T00:00:58;7.07;;;4.57;;
72891;SDS011;61032;50.782;6.818;2023-01-01T00:01:59;7.18;;;2.88;;
72891;SDS011;61032;50.782;6.818;2023-01-01T00:02:59;4.85;;;2.38;;
72891;SDS011;61032;50.782;6.818;2023-01-01T00:03:59;9.93;;;4.15;;
72891;SDS011;61032;50.782;6.818;2023-01-01T00:05:00;7.43;;;3.25;;
72891;SDS011;61032;50.782;6.818;2023-01-01T00:06:04;5.40;;;2.13;;
72891;SDS011;61032;50.782;6.818;2023-01-01T00:07:11;4.97;;;2.25;;
72891;SDS011;61032;50.782;6.818;2023-01-01T00:08:11;6.13;;;2.40;;
72891;SDS011;61032;50.782;6.818;2023-01-01T00:09:12;6.15;;;2.83;;
72891;SDS011;61032;50.782;6.818;2023-01-01T00:10:31;6.13;;;3.10;;
72891;SDS011;61032;50.782;6.818;2023-01-01T00:11:32;4.72;;;2.78;;
72891;SDS011;61032;50.782;6.818;2023-01-01T00:12:32;6.18;;;2.15;;
72891;SDS011;61032;50.782;6.818;2023-01-01T00:13:33;6.18;;;2.70;;
72891;SDS011;61032;50.782;6.818;2023-01-01T00:14:35;3.33;;;1.95;;
72891;SDS011;61032;50.782;6.818;2023-01-01T00:15:35;4.90;;;1.80;;
72891;SDS011;61032;50.782;6.818;2023-01-01T00:16:35;3.40;;;1.45;;
72891;SDS011;61032;50.782;6.818;2023-01-01T00:17:36;5.93;;;1.92;;
72891;SDS011;61032;50.782;6.818;2023-01-01T00:18:36;3.25;;;1.80;;
72891;SDS011;61032;50.782;6.818;2023-01-01T00:19:37;4.13;;;1.40;;
72891;SDS011;61032;50.782;6.818;2023-01-01T00:20:38;4.60;;;1.67;;
72891;SDS011;61032;50.782;6.818;2023-01-01T00:21:38;4.70;;;2.00;;
72891;SDS011;61032;50.782;6.818;2023-01-01T00:22:39;3.28;;;1.42;;
72891;SDS011;61032;50.782;6.818;2023-01-01T00:23:40;4.55;;;1.58;;
72891;SDS011;61032;50.782;6.818;2023-01-01T00:24:40;2.65;;;1.23;;
72891;SDS011;61032;50.782;6.818;2023-01-01T00:25:40;1.77;;;0.98;;
72891;SDS011;61032;50.782;6.818;2023-01-01T00:26:41;4.70;;;1.75;;
72891;SDS011;61032;50.782;6.818;2023-01-01T00:27:41;3.58;;;1.30;;
72891;SDS011;61032;50.782;6.818;2023-01-01T00:28:42;2.58;;;1.10;;
72891;SDS011;61032;50.782;6.818;2023-01-01T00:29:43;2.55;;;1.17;;
72891;SDS011;61032;50.782;6.818;2023-01-01T00:30:43;6.63;;;1.40;;
72891;SDS011;61032;50.782;6.818;2023-01-01T00:31:43;2.42;;;1.17;;
72891;SDS011;61032;50.782;6.818;2023-01-01T00:32:44;2.72;;;1.55;;
72891;SDS011;61032;50.782;6.818;2023-01-01T00:33:45;2.75;;;0.90;;
72891;SDS011;61032;50.782;6.818;2023-01-01T00:34:49;2.92;;;1.25;;
72891;SDS011;61032;50.782;6.818;2023-01-01T00:35:50;5.78;;;1.30;;
72891;SDS011;61032;50.782;6.818;2023-01-01T00:36:50;5.07;;;1.40;;
72891;SDS011;61032;50.782;6.818;2023-01-01T00:37:50;5.88;;;1.80;;
72891;SDS011;61032;50.782;6.818;2023-01-01T00:38:51;2.80;;;1.08;;
72891;SDS011;61032;50.782;6.818;2023-01-01T00:39:52;4.47;;;1.20;;
72891;SDS011;61032;50.782;6.818;2023-01-01T00:40:52;2.03;;;1.00;;
72891;SDS011;61032;50.782;6.818;2023-01-01T00:41:53;2.95;;;1.10;;
72891;SDS011;61032;50.782;6.818;2023-01-01T00:42:53;1.75;;;0.80;;
72891;SDS011;61032;50.782;6.818;2023-01-01T00:43:53;4.00;;;1.55;;
72891;SDS011;61032;50.782;6.818;2023-01-01T00:44:54;1.95;;;0.93;;
72891;SDS011;61032;50.782;6.818;2023-01-01T00:45:54;3.05;;;1.67;;
72891;SDS011;61032;50.782;6.818;2023-01-01T00:46:54;2.67;;;0.80;;
72891;SDS011;61032;50.782;6.818;2023-01-01T00:47:55;2.60;;;0.73;;
72891;SDS011;61032;50.782;6.818;2023-01-01T00:48:55;3.38;;;1.02;;
72891;SDS011;61032;50.782;6.818;2023-01-01T00:49:55;2.70;;;0.80;;
72891;SDS011;61032;50.782;6.818;2023-01-01T00:50:56;2.30;;;0.95;;
72891;SDS011;61032;50.782;6.818;2023-01-01T00:51:56;3.58;;;0.70;;
72891;SDS011;61032;50.782;6.818;2023-01-01T00:52:57;3.75;;;0.90;;
72891;SDS011;61032;50.782;6.818;2023-01-01T00:53:57;2.80;;;0.80;;
72891;SDS011;61032;50.782;6.818;2023-01-01T00:54:57;4.03;;;0.75;;
72891;SDS011;61032;50.782;6.818;2023-01-01T00:55:58;1.77;;;0.60;;
72891;SDS011;61032;50.782;6.818;2023-01-01T00:56:58;1.65;;;0.65;;
72891;SDS011;61032;50.782;6.818;2023-01-01T00:57:58;2.33;;;1.35;;
72891;SDS011;61032;50.782;6.818;2023-01-01T00:58:59;3.85;;;1.13;;
72891;SDS011;61032;50.782;6.818;2023-01-01T00:59:59;1.95;;;0.85;;
72891;SDS011;61032;50.782;6.818;2023-01-01T01:00:59;2.47;;;0.80;;
72891;SDS011;61032;50.782;6.818;2023-01-01T01:02:00;0.95;;;0.57;;
72891;SDS011;61032;50.782;6.818;2023-01-01T01:03:00;1.25;;;0.90;;
72891;SDS011;61032;50.782;6.818;2023-01-01T01:04:01;3.58;;;0.90;;
72891;SDS011;61032;50.782;6.818;2023-01-01T01:05:02;5.35;;;1.02;;
72891;SDS011;61032;50.782;6.818;2023-01-01T01:07:03;2.20;;;0.77;;
72891;SDS011;61032;50.782;6.818;2023-01-01T01:08:04;4.00;;;0.75;;
72891;SDS011;61032;50.782;6.818;2023-01-01T01:09:04;2.78;;;0.73;;
72891;SDS011;61032;50.782;6.818;2023-01-01T01:10:06;3.40;;;1.10;;
72891;SDS011;61032;50.782;6.818;2023-01-01T01:11:08;3.58;;;1.42;;
72891;SDS011;61032;50.782;6.818;2023-01-01T01:12:27;1.55;;;0.82;;
72891;SDS011;61032;50.782;6.818;2023-01-01T01:13:27;1.88;;;0.90;;
72891;SDS011;61032;50.782;6.818;2023-01-01T01:14:27;2.30;;;0.73;;
72891;SDS011;61032;50.782;6.818;2023-01-01T01:15:28;2.95;;;1.00;;
72891;SDS011;61032;50.782;6.818;2023-01-01T01:16:29;2.85;;;0.73;;
72891;SDS011;61032;50.782;6.818;2023-01-01T01:17:32;2.33;;;0.80;;
72891;SDS011;61032;50.782;6.818;2023-01-01T01:18:33;1.88;;;0.57;;
72891;SDS011;61032;50.782;6.818;2023-01-01T01:19:33;1.13;;;0.60;;
72891;SDS011;61032;50.782;6.818;2023-01-01T01:20:33;6.10;;;0.93;;
72891;SDS011;61032;50.782;6.818;2023-01-01T01:21:34;2.85;;;0.70;;
72891;SDS011;61032;50.782;6.818;2023-01-01T01:22:34;1.65;;;0.55;;
72891;SDS011;61032;50.782;6.818;2023-01-01T01:23:35;2.05;;;0.50;;
72891;SDS011;61032;50.782;6.818;2023-01-01T01:24:36;3.80;;;0.65;;
72891;SDS011;61032;50.782;6.818;2023-01-01T01:25:36;1.77;;;0.65;;
72891;SDS011;61032;50.782;6.818;2023-01-01T01:26:36;1.42;;;0.50;;
72891;SDS011;61032;50.782;6.818;2023-01-01T01:27:36;1.65;;;0.70;;
72891;SDS011;61032;50.782;6.818;2023-01-01T01:28:37;1.58;;;0.50;;
72891;SDS011;61032;50.782;6.818;2023-01-01T01:29:38;2.45;;;0.80;;
72891;SDS011;61032;50.782;6.818;2023-01-01T01:30:38;1.50;;;0.60;;
72891;SDS011;61032;50.782;6.818;2023-01-01T01:31:39;2.55;;;0.50;;
72891;SDS011;61032;50.782;6.818;2023-01-01T01:32:39;4.13;;;0.73;;
72891;SDS011;61032;50.782;6.818;2023-01-01T01:33:41;2.88;;;0.88;;
72891;SDS011;61032;50.782;6.818;2023-01-01T01:34:42;2.45;;;0.55;;
72891;SDS011;61032;50.782;6.818;2023-01-01T01:35:49;1.77;;;0.55;;
72891;SDS011;61032;50.782;6.818;2023-01-01T01:36:49;1.92;;;0.50;;
72891;SDS011;61032;50.782;6.818;2023-01-01T01:38:52;4.05;;;0.80;;
72891;SDS011;61032;50.782;6.818;2023-01-01T01:39:53;1.10;;;0.55;;
72891;SDS011;61032;50.782;6.818;2023-01-01T01:40:53;3.60;;;0.50;;
72891;SDS011;61032;50.782;6.818;2023-01-01T01:41:53;1.50;;;0.52;;
72891;SDS011;61032;50.782;6.818;2023-01-01T01:42:54;1.35;;;0.60;;
72891;SDS011;61032;50.782;6.818;2023-01-01T01:44:56;0.88;;;0.32;;
72891;SDS011;61032;50.782;6.818;2023-01-01T01:46:20;2.70;;;0.50;;
72891;SDS011;61032;50.782;6.818;2023-01-01T01:47:34;2.03;;;0.90;;
72891;SDS011;61032;50.782;6.818;2023-01-01T01:48:50;2.30;;;0.75;;
72891;SDS011;61032;50.782;6.818;2023-01-01T01:49:52;2.63;;;0.70;;
72891;SDS011;61032;50.782;6.818;2023-01-01T01:50:56;1.95;;;0.40;;
72891;SDS011;61032;50.782;6.818;2023-01-01T01:51:57;3.25;;;0.68;;
72891;SDS011;61032;50.782;6.818;2023-01-01T01:53:03;1.40;;;0.40;;
72891;SDS011;61032;50.782;6.818;2023-01-01T01:54:11;2.28;;;0.50;;
72891;SDS011;61032;50.782;6.818;2023-01-01T01:55:15;1.48;;;0.50;;
72891;SDS011;61032;50.782;6.818;2023-01-01T01:56:18;3.38;;;0.70;;
72891;SDS011;61032;50.782;6.818;2023-01-01T01:57:28;2.50;;;0.60;;
72891;SDS011;61032;50.782;6.818;2023-01-01T01:58:29;1.73;;;0.60;;
72891;SDS011;61032;50.782;6.818;2023-01-01T01:59:32;3.28;;;0.60;;
72891;SDS011;61032;50.782;6.818;2023-01-01T02:00:35;1.48;;;0.70;;
72891;SDS011;61032;50.782;6.818;2023-01-01T02:01:36;1.38;;;0.50;;
72891;SDS011;61032;50.782;6.818;2023-01-01T02:02:41;1.58;;;0.68;;
72891;SDS011;61032;50.782;6.818;2023-01-01T02:03:52;2.78;;;0.70;;
72891;SDS011;61032;50.782;6.818;2023-01-01T02:04:56;1.52;;;0.47;;
72891;SDS011;61032;50.782;6.818;2023-01-01T02:05:57;2.38;;;0.90;;
72891;SDS011;61032;50.782;6.818;2023-01-01T02:06:58;1.45;;;0.63;;
72891;SDS011;61032;50.782;6.818;2023-01-01T02:07:59;1.67;;;0.43;;
72891;SDS011;61032;50.782;6.818;2023-01-01T02:09:01;2.40;;;0.55;;
72891;SDS011;61032;50.782;6.818;2023-01-01T02:10:03;3.08;;;0.60;;
72891;SDS011;61032;50.782;6.818;2023-01-01T02:11:04;5.10;;;0.85;;
72891;SDS011;61032;50.782;6.818;2023-01-01T02:12:05;1.40;;;0.60;;
72891;SDS011;61032;50.782;6.818;2023-01-01T02:13:05;3.20;;;0.60;;
72891;SDS011;61032;50.782;6.818;2023-01-01T02:14:05;1.85;;;0.60;;
72891;SDS011;61032;50.782;6.818;2023-01-01T02:15:06;1.23;;;0.60;;
72891;SDS011;61032;50.782;6.818;2023-01-01T02:20:02;3.83;;;0.60;;
72891;SDS011;61032;50.782;6.818;2023-01-01T02:21:23;1.38;;;0.60;;
72891;SDS011;61032;50.782;6.818;2023-01-01T02:26:42;3.17;;;1.38;;
72891;SDS011;61032;50.782;6.818;2023-01-01T02:29:25;4.05;;;0.60;;
72891;SDS011;61032;50.782;6.818;2023-01-01T02:30:30;4.28;;;0.57;;
72891;SDS011;61032;50.782;6.818;2023-01-01T02:31:35;3.78;;;0.70;;
72891;SDS011;61032;50.782;6.818;2023-01-01T02:32:41;1.10;;;0.60;;
72891;SDS011;61032;50.782;6.818;2023-01-01T02:33:46;6.28;;;0.73;;
72891;SDS011;61032;50.782;6.818;2023-01-01T02:34:56;1.80;;;0.50;;
72891;SDS011;61032;50.782;6.818;2023-01-01T02:36:20;2.15;;;0.80;;
72891;SDS011;61032;50.782;6.818;2023-01-01T02:37:23;2.63;;;0.63;;
72891;SDS011;61032;50.782;6.818;2023-01-01T02:38:29;1.77;;;0.70;;
72891;SDS011;61032;50.782;6.818;2023-01-01T02:39:34;2.47;;;0.73;;
72891;SDS011;61032;50.782;6.818;2023-01-01T02:40:45;1.83;;;0.80;;
72891;SDS011;61032;50.782;6.818;2023-01-01T02:41:49;2.58;;;0.60;;
72891;SDS011;61032;50.782;6.818;2023-01-01T02:42:53;1.60;;;0.73;;
72891;SDS011;61032;50.782;6.818;2023-01-01T02:43:55;3.10;;;0.60;;
72891;SDS011;61032;50.782;6.818;2023-01-01T02:44:55;3.08;;;0.70;;
72891;SDS011;61032;50.782;6.818;2023-01-01T02:45:58;2.20;;;0.70;;
72891;SDS011;61032;50.782;6.818;2023-01-01T02:47:05;2.88;;;0.57;;
72891;SDS011;61032;50.782;6.818;2023-01-01T02:48:33;3.90;;;0.82;;
72891;SDS011;61032;50.782;6.818;2023-01-01T02:49:52;0.75;;;0.40;;
72891;SDS011;61032;50.782;6.818;2023-01-01T02:50:55;3.45;;;0.73;;
72891;SDS011;61032;50.782;6.818;2023-01-01T02:52:10;3.08;;;0.55;;
72891;SDS011;61032;50.782;6.818;2023-01-01T02:53:35;2.05;;;0.50;;
72891;SDS011;61032;50.782;6.818;2023-01-01T02:56:53;4.72;;;0.80;;
72891;SDS011;61032;50.782;6.818;2023-01-01T03:00:05;0.73;;;0.32;;
72891;SDS011;61032;50.782;6.818;2023-01-01T03:04:25;1.63;;;0.47;;
72891;SDS011;61032;50.782;6.818;2023-01-01T03:10:03;2.53;;;0.60;;
72891;SDS011;61032;50.782;6.818;2023-01-01T03:11:15;3.80;;;0.80;;
72891;SDS011;61032;50.782;6.818;2023-01-01T03:13:39;1.90;;;0.50;;
72891;SDS011;61032;50.782;6.818;2023-01-01T03:15:59;1.95;;;0.60;;
72891;SDS011;61032;50.782;6.818;2023-01-01T03:17:10;3.97;;;0.65;;
72891;SDS011;61032;50.782;6.818;2023-01-01T03:20:10;1.55;;;0.60;;
72891;SDS011;61032;50.782;6.818;2023-01-01T03:21:20;2.38;;;0.70;;
72891;SDS011;61032;50.782;6.818;2023-01-01T03:22:22;2.08;;;0.65;;
72891;SDS011;61032;50.782;6.818;2023-01-01T03:23:30;2.17;;;0.65;;
72891;SDS011;61032;50.782;6.818;2023-01-01T03:25:37;2.13;;;0.60;;
72891;SDS011;61032;50.782;6.818;2023-01-01T03:26:43;2.00;;;0.43;;
72891;SDS011;61032;50.782;6.818;2023-01-01T03:27:48;2.28;;;0.93;;
72891;SDS011;61032;50.782;6.818;2023-01-01T03:28:55;3.47;;;1.05;;
72891;SDS011;61032;50.782;6.818;2023-01-01T03:29:58;1.38;;;0.50;;
72891;SDS011;61032;50.782;6.818;2023-01-01T03:31:02;3.13;;;0.80;;
72891;SDS011;61032;50.782;6.818;2023-01-01T03:32:03;2.75;;;0.63;;
72891;SDS011;61032;50.782;6.818;2023-01-01T03:33:08;1.83;;;0.57;;
72891;SDS011;61032;50.782;6.818;2023-01-01T03:34:16;1.17;;;0.30;;
72891;SDS011;61032;50.782;6.818;2023-01-01T03:35:20;1.92;;;0.68;;
72891;SDS011;61032;50.782;6.818;2023-01-01T03:36:27;3.17;;;0.63;;
72891;SDS011;61032;50.782;6.818;2023-01-01T03:37:30;1.77;;;0.60;;
72891;SDS011;61032;50.782;6.818;2023-01-01T03:38:46;1.77;;;0.60;;
72891;SDS011;61032;50.782;6.818;2023-01-01T03:39:52;1.25;;;0.52;;
72891;SDS011;61032;50.782;6.818;2023-01-01T03:40:57;2.38;;;0.70;;
72891;SDS011;61032;50.782;6.818;2023-01-01T03:42:16;3.10;;;0.65;;
72891;SDS011;61032;50.782;6.818;2023-01-01T03:43:27;3.35;;;0.70;;
72891;SDS011;61032;50.782;6.818;2023-01-01T03:44:46;3.65;;;0.95;;
72891;SDS011;61032;50.782;6.818;2023-01-01T03:45:50;4.10;;;0.80;;
72891;SDS011;61032;50.782;6.818;2023-01-01T03:46:52;2.47;;;0.52;;
72891;SDS011;61032;50.782;6.818;2023-01-01T03:47:53;2.60;;;0.70;;
72891;SDS011;61032;50.782;6.818;2023-01-01T03:48:54;4.03;;;0.63;;
72891;SDS011;61032;50.782;6.818;2023-01-01T03:49:56;2.33;;;0.77;;
72891;SDS011;61032;50.782;6.818;2023-01-01T03:51:00;3.53;;;0.80;;
72891;SDS011;61032;50.782;6.818;2023-01-01T03:53:41;2.00;;;0.70;;
72891;SDS011;61032;50.782;6.818;2023-01-01T03:56:19;2.17;;;0.47;;
72891;SDS011;61032;50.782;6.818;2023-01-01T03:58:51;1.45;;;0.65;;
72891;SDS011;61032;50.782;6.818;2023-01-01T03:59:50;6.68;;;0.80;;
72891;SDS011;61032;50.782;6.818;2023-01-01T04:01:05;2.45;;;0.82;;
72891;SDS011;61032;50.782;6.818;2023-01-01T04:02:07;3.75;;;0.75;;
72891;SDS011;61032;50.782;6.818;2023-01-01T04:03:18;1.90;;;0.60;;
72891;SDS011;61032;50.782;6.818;2023-01-01T04:04:21;2.78;;;0.55;;
72891;SDS011;61032;50.782;6.818;2023-01-01T04:05:23;4.55;;;0.55;;
72891;SDS011;61032;50.782;6.818;2023-01-01T04:06:24;3.38;;;0.90;;
72891;SDS011;61032;50.782;6.818;2023-01-01T04:07:25;2.55;;;0.85;;
72891;SDS011;61032;50.782;6.818;2023-01-01T04:08:27;3.53;;;0.90;;
72891;SDS011;61032;50.782;6.818;2023-01-01T04:09:29;3.28;;;0.60;;
72891;SDS011;61032;50.782;6.818;2023-01-01T04:10:33;2.08;;;0.80;;
72891;SDS011;61032;50.782;6.818;2023-01-01T04:11:35;2.58;;;0.90;;
72891;SDS011;61032;50.782;6.818;2023-01-01T04:12:57;1.45;;;0.55;;
72891;SDS011;61032;50.782;6.818;2023-01-01T04:13:57;2.20;;;0.90;;
72891;SDS011;61032;50.782;6.818;2023-01-01T04:14:58;2.95;;;0.88;;
72891;SDS011;61032;50.782;6.818;2023-01-01T04:15:58;1.98;;;0.60;;
72891;SDS011;61032;50.782;6.818;2023-01-01T04:16:58;3.08;;;0.73;;
72891;SDS011;61032;50.782;6.818;2023-01-01T04:17:59;2.58;;;0.60;;
72891;SDS011;61032;50.782;6.818;2023-01-01T04:18:59;2.60;;;0.77;;
72891;SDS011;61032;50.782;6.818;2023-01-01T04:20:00;1.88;;;0.70;;
72891;SDS011;61032;50.782;6.818;2023-01-01T04:22:19;2.30;;;0.70;;
72891;SDS011;61032;50.782;6.818;2023-01-01T04:23:22;3.30;;;0.50;;
72891;SDS011;61032;50.782;6.818;2023-01-01T04:24:22;2.70;;;0.57;;
72891;SDS011;61032;50.782;6.818;2023-01-01T04:25:22;2.75;;;0.77;;
72891;SDS011;61032;50.782;6.818;2023-01-01T04:26:23;3.83;;;0.70;;
72891;SDS011;61032;50.782;6.818;2023-01-01T04:27:23;3.15;;;0.50;;
72891;SDS011;61032;50.782;6.818;2023-01-01T04:28:24;5.57;;;2.40;;
72891;SDS011;61032;50.782;6.818;2023-01-01T04:29:24;3.58;;;0.80;;
72891;SDS011;61032;50.782;6.818;2023-01-01T04:30:24;1.95;;;0.60;;
72891;SDS011;61032;50.782;6.818;2023-01-01T04:31:25;1.60;;;0.70;;
72891;SDS011;61032;50.782;6.818;2023-01-01T04:32:26;1.00;;;0.50;;
72891;SDS011;61032;50.782;6.818;2023-01-01T04:33:26;4.32;;;2.35;;
72891;SDS011;61032;50.782;6.818;2023-01-01T04:34:26;2.40;;;0.70;;
72891;SDS011;61032;50.782;6.818;2023-01-01T04:35:27;1.27;;;0.60;;
72891;SDS011;61032;50.782;6.818;2023-01-01T04:36:27;3.25;;;0.70;;
72891;SDS011;61032;50.782;6.818;2023-01-01T04:37:27;2.72;;;0.70;;
72891;SDS011;61032;50.782;6.818;2023-01-01T04:38:28;4.03;;;0.85;;
72891;SDS011;61032;50.782;6.818;2023-01-01T04:39:28;2.35;;;0.60;;
72891;SDS011;61032;50.782;6.818;2023-01-01T04:40:28;3.55;;;0.70;;
72891;SDS011;61032;50.782;6.818;2023-01-01T04:41:28;2.83;;;0.60;;
72891;SDS011;61032;50.782;6.818;2023-01-01T04:42:29;3.70;;;0.77;;
72891;SDS011;61032;50.782;6.818;2023-01-01T04:43:29;2.35;;;0.60;;
72891;SDS011;61032;50.782;6.818;2023-01-01T04:44:30;4.13;;;0.75;;
72891;SDS011;61032;50.782;6.818;2023-01-01T04:45:30;3.42;;;1.05;;
72891;SDS011;61032;50.782;6.818;2023-01-01T04:46:31;6.68;;;0.98;;
72891;SDS011;61032;50.782;6.818;2023-01-01T04:47:31;3.35;;;0.75;;
72891;SDS011;61032;50.782;6.818;2023-01-01T04:48:33;2.65;;;0.63;;
72891;SDS011;61032;50.782;6.818;2023-01-01T04:49:34;3.22;;;0.80;;
72891;SDS011;61032;50.782;6.818;2023-01-01T04:50:35;2.45;;;0.90;;
72891;SDS011;61032;50.782;6.818;2023-01-01T04:51:35;1.83;;;0.55;;
72891;SDS011;61032;50.782;6.818;2023-01-01T04:52:36;3.10;;;0.98;;
72891;SDS011;61032;50.782;6.818;2023-01-01T04:53:36;1.50;;;0.70;;
72891;SDS011;61032;50.782;6.818;2023-01-01T04:54:37;3.13;;;1.00;;
72891;SDS011;61032;50.782;6.818;2023-01-01T04:55:37;3.25;;;1.02;;
72891;SDS011;61032;50.782;6.818;2023-01-01T04:56:37;2.15;;;0.60;;
72891;SDS011;61032;50.782;6.818;2023-01-01T04:57:37;1.92;;;0.85;;
72891;SDS011;61032;50.782;6.818;2023-01-01T04:58:39;3.25;;;0.90;;
72891;SDS011;61032;50.782;6.818;2023-01-01T05:00:40;2.42;;;1.25;;
72891;SDS011;61032;50.782;6.818;2023-01-01T05:01:41;2.28;;;0.77;;
72891;SDS011;61032;50.782;6.818;2023-01-01T05:02:41;3.40;;;0.95;;
72891;SDS011;61032;50.782;6.818;2023-01-01T05:03:41;4.40;;;0.60;;
72891;SDS011;61032;50.782;6.818;2023-01-01T05:04:42;4.07;;;0.60;;
72891;SDS011;61032;50.782;6.818;2023-01-01T05:05:42;3.47;;;0.95;;
72891;SDS011;61032;50.782;6.818;2023-01-01T05:06:43;3.60;;;0.63;;
72891;SDS011;61032;50.782;6.818;2023-01-01T05:07:43;2.33;;;0.85;;
72891;SDS011;61032;50.782;6.818;2023-01-01T05:08:45;4.20;;;0.60;;
72891;SDS011;61032;50.782;6.818;2023-01-01T05:09:46;1.77;;;0.82;;
72891;SDS011;61032;50.782;6.818;2023-01-01T05:10:47;3.80;;;0.80;;
72891;SDS011;61032;50.782;6.818;2023-01-01T05:11:47;2.65;;;0.85;;
72891;SDS011;61032;50.782;6.818;2023-01-01T05:12:47;2.15;;;0.60;;
72891;SDS011;61032;50.782;6.818;2023-01-01T05:13:50;3.83;;;0.90;;
72891;SDS011;61032;50.782;6.818;2023-01-01T05:14:52;4.55;;;0.63;;
72891;SDS011;61032;50.782;6.818;2023-01-01T05:15:52;3.08;;;0.75;;
72891;SDS011;61032;50.782;6.818;2023-01-01T05:16:52;2.40;;;0.63;;
72891;SDS011;61032;50.782;6.818;2023-01-01T05:17:53;3.33;;;0.80;;
72891;SDS011;61032;50.782;6.818;2023-01-01T05:18:53;3.05;;;0.98;;
72891;SDS011;61032;50.782;6.818;2023-01-01T05:19:53;2.03;;;0.73;;
72891;SDS011;61032;50.782;6.818;2023-01-01T05:20:58;2.03;;;0.73;;
72891;SDS011;61032;50.782;6.818;2023-01-01T05:22:02;2.50;;;1.00;;
72891;SDS011;61032;50.782;6.818;2023-01-01T05:23:03;2.15;;;0.80;;
72891;SDS011;61032;50.782;6.818;2023-01-01T05:24:04;1.30;;;0.80;;
72891;SDS011;61032;50.782;6.818;2023-01-01T05:25:06;2.95;;;0.98;;
72891;SDS011;61032;50.782;6.818;2023-01-01T05:26:10;2.35;;;0.93;;
72891;SDS011;61032;50.782;6.818;2023-01-01T05:27:12;4.13;;;1.10;;
72891;SDS011;61032;50.782;6.818;2023-01-01T05:28:12;3.55;;;1.00;;
72891;SDS011;61032;50.782;6.818;2023-01-01T05:29:13;4.13;;;0.65;;
72891;SDS011;61032;50.782;6.818;2023-01-01T05:30:13;2.35;;;0.88;;
72891;SDS011;61032;50.782;6.818;2023-01-01T05:31:14;5.07;;;1.30;;
72891;SDS011;61032;50.782;6.818;2023-01-01T05:32:19;3.72;;;0.82;;
72891;SDS011;61032;50.782;6.818;2023-01-01T05:33:19;3.63;;;0.80;;
72891;SDS011;61032;50.782;6.818;2023-01-01T05:34:20;2.92;;;1.52;;
72891;SDS011;61032;50.782;6.818;2023-01-01T05:35:20;2.45;;;0.70;;
72891;SDS011;61032;50.782;6.818;2023-01-01T05:36:21;3.88;;;0.80;;
72891;SDS011;61032;50.782;6.818;2023-01-01T05:37:23;2.80;;;0.80;;
72891;SDS011;61032;50.782;6.818;2023-01-01T05:38:24;1.80;;;0.80;;
72891;SDS011;61032;50.782;6.818;2023-01-01T05:39:24;2.60;;;0.73;;
72891;SDS011;61032;50.782;6.818;2023-01-01T05:40:24;5.53;;;0.90;;
72891;SDS011;61032;50.782;6.818;2023-01-01T05:41:25;3.40;;;0.73;;
72891;SDS011;61032;50.782;6.818;2023-01-01T05:42:25;4.03;;;1.02;;
72891;SDS011;61032;50.782;6.818;2023-01-01T05:43:26;5.57;;;0.82;;
72891;SDS011;61032;50.782;6.818;2023-01-01T05:44:26;3.38;;;1.00;;
72891;SDS011;61032;50.782;6.818;2023-01-01T05:45:27;3.45;;;0.85;;
72891;SDS011;61032;50.782;6.818;2023-01-01T05:46:27;3.42;;;1.00;;
72891;SDS011;61032;50.782;6.818;2023-01-01T05:47:27;3.25;;;0.88;;
72891;SDS011;61032;50.782;6.818;2023-01-01T05:48:28;4.40;;;0.85;;
72891;SDS011;61032;50.782;6.818;2023-01-01T05:49:28;4.72;;;0.95;;
72891;SDS011;61032;50.782;6.818;2023-01-01T05:50:28;3.58;;;0.88;;
72891;SDS011;61032;50.782;6.818;2023-01-01T05:51:29;6.53;;;0.98;;
72891;SDS011;61032;50.782;6.818;2023-01-01T05:52:30;4.40;;;1.00;;
72891;SDS011;61032;50.782;6.818;2023-01-01T05:53:30;5.43;;;1.02;;
72891;SDS011;61032;50.782;6.818;2023-01-01T05:54:31;1.90;;;0.70;;
72891;SDS011;61032;50.782;6.818;2023-01-01T05:55:31;2.08;;;0.95;;
72891;SDS011;61032;50.782;6.818;2023-01-01T05:56:31;2.22;;;0.93;;
72891;SDS011;61032;50.782;6.818;2023-01-01T05:57:32;2.65;;;0.82;;
72891;SDS011;61032;50.782;6.818;2023-01-01T05:58:32;3.38;;;0.80;;
72891;SDS011;61032;50.782;6.818;2023-01-01T05:59:34;3.70;;;0.80;;
72891;SDS011;61032;50.782;6.818;2023-01-01T06:00:34;1.50;;;0.80;;
72891;SDS011;61032;50.782;6.818;2023-01-01T06:01:34;2.00;;;0.85;;
72891;SDS011;61032;50.782;6.818;2023-01-01T06:02:35;1.55;;;0.55;;
72891;SDS011;61032;50.782;6.818;2023-01-01T06:03:35;4.75;;;1.10;;
72891;SDS011;61032;50.782;6.818;2023-01-01T06:04:36;2.63;;;0.82;;
72891;SDS011;61032;50.782;6.818;2023-01-01T06:05:36;2.78;;;0.88;;
72891;SDS011;61032;50.782;6.818;2023-01-01T06:06:36;2.05;;;0.70;;
72891;SDS011;61032;50.782;6.818;2023-01-01T06:07:36;1.85;;;0.70;;
72891;SDS011;61032;50.782;6.818;2023-01-01T06:08:37;3.10;;;0.80;;
72891;SDS011;61032;50.782;6.818;2023-01-01T06:09:37;2.08;;;0.98;;
72891;SDS011;61032;50.782;6.818;2023-01-01T06:10:38;3.55;;;0.77;;
72891;SDS011;61032;50.782;6.818;2023-01-01T06:11:38;5.72;;;1.52;;
72891;SDS011;61032;50.782;6.818;2023-01-01T06:12:38;2.40;;;1.00;;
72891;SDS011;61032;50.782;6.818;2023-01-01T06:13:39;3.40;;;0.82;;
72891;SDS011;61032;50.782;6.818;2023-01-01T06:14:39;2.13;;;0.73;;
72891;SDS011;61032;50.782;6.818;2023-01-01T06:15:39;2.15;;;0.68;;
72891;SDS011;61032;50.782;6.818;2023-01-01T06:16:39;2.38;;;0.70;;
72891;SDS011;61032;50.782;6.818;2023-01-01T06:17:40;2.63;;;0.90;;
72891;SDS011;61032;50.782;6.818;2023-01-01T06:18:40;2.70;;;0.90;;
72891;SDS011;61032;50.782;6.818;2023-01-01T06:19:40;6.10;;;0.90;;
72891;SDS011;61032;50.782;6.818;2023-01-01T06:20:41;2.90;;;0.77;;
72891;SDS011;61032;50.782;6.818;2023-01-01T06:21:41;2.88;;;0.85;;
72891;SDS011;61032;50.782;6.818;2023-01-01T06:22:41;4.13;;;0.77;;
72891;SDS011;61032;50.782;6.818;2023-01-01T06:23:42;5.13;;;1.02;;
72891;SDS011;61032;50.782;6.818;2023-01-01T06:24:42;2.22;;;1.02;;
72891;SDS011;61032;50.782;6.818;2023-01-01T06:25:43;2.40;;;0.80;;
72891;SDS011;61032;50.782;6.818;2023-01-01T06:26:43;2.70;;;1.05;;
72891;SDS011;61032;50.782;6.818;2023-01-01T06:27:44;5.10;;;1.30;;
72891;SDS011;61032;50.782;6.818;2023-01-01T06:28:45;3.92;;;0.80;;
72891;SDS011;61032;50.782;6.818;2023-01-01T06:29:46;3.38;;;0.82;;
72891;SDS011;61032;50.782;6.818;2023-01-01T06:30:46;1.63;;;0.90;;
72891;SDS011;61032;50.782;6.818;2023-01-01T06:31:46;1.60;;;1.00;;
72891;SDS011;61032;50.782;6.818;2023-01-01T06:32:46;1.55;;;0.80;;
72891;SDS011;61032;50.782;6.818;2023-01-01T06:33:47;4.78;;;1.20;;
72891;SDS011;61032;50.782;6.818;2023-01-01T06:34:49;2.95;;;0.88;;
72891;SDS011;61032;50.782;6.818;2023-01-01T06:35:49;3.88;;;0.90;;
72891;SDS011;61032;50.782;6.818;2023-01-01T06:36:50;3.92;;;0.85;;
72891;SDS011;61032;50.782;6.818;2023-01-01T06:37:50;4.18;;;0.85;;
72891;SDS011;61032;50.782;6.818;2023-01-01T06:38:51;2.95;;;1.25;;
72891;SDS011;61032;50.782;6.818;2023-01-01T06:39:54;4.43;;;1.02;;
72891;SDS011;61032;50.782;6.818;2023-01-01T06:40:58;6.28;;;1.15;;
72891;SDS011;61032;50.782;6.818;2023-01-01T06:42:00;2.10;;;1.00;;
72891;SDS011;61032;50.782;6.818;2023-01-01T06:43:00;2.45;;;0.68;;
72891;SDS011;61032;50.782;6.818;2023-01-01T06:44:01;2.63;;;0.85;;
72891;SDS011;61032;50.782;6.818;2023-01-01T06:45:02;2.03;;;0.90;;
72891;SDS011;61032;50.782;6.818;2023-01-01T06:46:03;4.15;;;0.82;;
72891;SDS011;61032;50.782;6.818;2023-01-01T06:47:18;3.20;;;0.80;;
72891;SDS011;61032;50.782;6.818;2023-01-01T06:48:18;3.78;;;1.10;;
72891;SDS011;61032;50.782;6.818;2023-01-01T06:49:18;5.85;;;1.02;;
72891;SDS011;61032;50.782;6.818;2023-01-01T06:50:19;4.13;;;1.13;;
72891;SDS011;61032;50.782;6.818;2023-01-01T06:51:20;1.55;;;0.77;;
72891;SDS011;61032;50.782;6.818;2023-01-01T06:52:22;4.30;;;0.88;;
72891;SDS011;61032;50.782;6.818;2023-01-01T06:53:23;2.20;;;0.75;;
72891;SDS011;61032;50.782;6.818;2023-01-01T06:54:24;5.30;;;0.65;;